Time;durP1;ratioP1;P1;durP2;ratioP2;P2;SDS_P1;SDS_P2;PMS_P1;PMS_P2;Temp;Humidity;BMP_temperature;BMP_pressure;BME280_temperature;BME280_humidity;BME280_pressure;Samples;Min_cycle;Max_cycle;Signal;HPM_P1;HPM_P2
2022/03/02 00:01:16;;;;;;;15.13;11.85;;;0.70;86.50;;;;;;5118903;28;20224;-79
2022/03/02 00:03:43;;;;;;;13.52;11.93;;;0.70;86.80;;;;;;5119095;28;20229;-80
2022/03/02 00:06:10;;;;;;;15.45;11.85;;;0.70;87.40;;;;;;5106435;28;20231;-79
2022/03/02 00:08:37;;;;;;;17.38;14.55;;;0.70;87.60;;;;;;5116654;28;20227;-79
2022/03/02 00:11:04;;;;;;;17.58;12.98;;;0.70;87.80;;;;;;5113685;28;20233;-79
2022/03/02 00:13:31;;;;;;;16.20;12.00;;;0.60;87.90;;;;;;5100891;28;20204;-79
2022/03/02 00:15:58;;;;;;;14.60;12.30;;;0.50;88.30;;;;;;5115404;28;20199;-81
2022/03/02 00:18:27;;;;;;;16.73;13.95;;;0.50;88.70;;;;;;5132761;28;20200;-79
2022/03/02 00:20:53;;;;;;;22.02;13.85;;;0.60;89.00;;;;;;5119897;28;20208;-79
2022/03/02 00:23:20;;;;;;;17.70;12.82;;;0.60;89.30;;;;;;5106747;28;20198;-79
2022/03/02 00:25:47;;;;;;;16.13;11.73;;;0.70;89.70;;;;;;5111959;28;20220;-79
2022/03/02 00:28:14;;;;;;;13.30;11.95;;;0.70;89.90;;;;;;5118996;28;20207;-79
2022/03/02 00:30:41;;;;;;;16.08;12.63;;;0.80;89.90;;;;;;5113079;28;20221;-79
2022/03/02 00:33:08;;;;;;;13.20;11.85;;;0.80;90.00;;;;;;5118220;28;20216;-79
2022/03/02 00:35:37;;;;;;;13.55;12.18;;;0.90;89.80;;;;;;5102310;28;20198;-79
2022/03/02 00:38:06;;;;;;;17.13;12.20;;;0.90;89.30;;;;;;5097601;28;20208;-79
2022/03/02 00:40:35;;;;;;;14.70;12.02;;;1.00;89.30;;;;;;5111835;28;20645;-79
2022/03/02 00:43:01;;;;;;;13.73;12.30;;;1.00;88.00;;;;;;5117794;28;20230;-79
2022/03/02 00:45:28;;;;;;;16.08;12.80;;;0.80;88.30;;;;;;5103597;28;20216;-79
2022/03/02 00:47:55;;;;;;;15.13;12.25;;;0.40;89.10;;;;;;5097572;28;20637;-79
2022/03/02 00:50:22;;;;;;;14.07;10.95;;;0.30;90.30;;;;;;5109640;28;20200;-79
2022/03/02 00:52:51;;;;;;;15.45;12.70;;;0.50;90.40;;;;;;5117746;28;20208;-80
2022/03/02 00:55:18;;;;;;;13.85;11.02;;;0.60;90.40;;;;;;5104085;28;20207;-80
2022/03/02 00:57:45;;;;;;;13.38;11.55;;;0.70;90.30;;;;;;5102259;28;20631;-80
2022/03/02 01:00:13;;;;;;;21.17;12.25;;;0.80;90.10;;;;;;5117086;28;20217;-80
2022/03/02 01:02:40;;;;;;;15.88;12.20;;;0.90;90.00;;;;;;5111988;28;20220;-79
2022/03/02 01:05:08;;;;;;;13.10;11.65;;;1.00;90.00;;;;;;5096601;28;20233;-79
2022/03/02 01:07:35;;;;;;;18.02;11.75;;;1.00;90.00;;;;;;5099448;28;20730;-80
2022/03/02 01:10:05;;;;;;;15.13;11.55;;;1.10;89.80;;;;;;5117186;28;20584;-80
2022/03/02 01:12:33;;;;;;;14.50;11.75;;;1.10;89.40;;;;;;5114112;28;20240;-80
2022/03/02 01:14:59;;;;;;;14.68;13.13;;;1.10;89.10;;;;;;5096510;28;20211;-80
2022/03/02 01:17:26;;;;;;;14.75;13.25;;;1.10;89.20;;;;;;5097314;28;20334;-80
2022/03/02 01:19:53;;;;;;;17.73;12.77;;;1.10;89.50;;;;;;5117318;28;20212;-80
2022/03/02 01:22:21;;;;;;;16.63;12.80;;;1.20;89.60;;;;;;5112927;28;20227;-80
2022/03/02 01:24:47;;;;;;;13.13;11.75;;;1.00;89.40;;;;;;5115729;28;20243;-80
2022/03/02 01:27:16;;;;;;;17.33;13.13;;;0.90;90.00;;;;;;5114813;28;20212;-80
2022/03/02 01:29:43;;;;;;;17.08;12.52;;;1.00;90.10;;;;;;5096110;28;20246;-80
2022/03/02 01:32:11;;;;;;;12.65;10.07;;;1.00;90.10;;;;;;5097175;28;20596;-80
2022/03/02 01:34:39;;;;;;;15.43;12.35;;;1.00;90.10;;;;;;5116811;28;20204;-80
2022/03/02 01:37:06;;;;;;;13.88;9.95;;;1.00;90.00;;;;;;5116703;28;20217;-80
2022/03/02 01:39:33;;;;;;;15.02;11.63;;;1.10;90.00;;;;;;5096545;28;20557;-80
2022/03/02 01:42:00;;;;;;;12.48;11.00;;;1.10;90.00;;;;;;5096217;28;20228;-80
2022/03/02 01:44:28;;;;;;;13.60;11.68;;;1.10;89.90;;;;;;5115406;28;20200;-80
2022/03/02 01:46:55;;;;;;;12.40;10.93;;;1.10;90.00;;;;;;5116642;28;20227;-80
2022/03/02 01:49:22;;;;;;;13.18;11.90;;;1.10;90.10;;;;;;5098269;28;20201;-80
2022/03/02 01:51:48;;;;;;;17.48;13.32;;;1.10;90.20;;;;;;5107906;28;20218;-80
2022/03/02 01:54:15;;;;;;;14.25;11.50;;;1.10;90.30;;;;;;5116119;28;20577;-80
2022/03/02 01:56:42;;;;;;;15.80;11.18;;;1.10;90.30;;;;;;5105328;28;20200;-80
2022/03/02 01:59:11;;;;;;;18.77;12.35;;;1.00;90.30;;;;;;5095904;28;20206;-80
2022/03/02 02:01:39;;;;;;;17.77;11.85;;;1.00;90.30;;;;;;5105054;28;20272;-80
2022/03/02 02:04:06;;;;;;;13.45;11.45;;;1.00;90.50;;;;;;5115788;28;20561;-80
2022/03/02 02:06:34;;;;;;;16.17;13.35;;;0.90;90.50;;;;;;5111137;28;20213;-80
2022/03/02 02:09:02;;;;;;;14.77;12.45;;;0.90;90.70;;;;;;5108904;28;20208;-80
2022/03/02 02:11:31;;;;;;;16.73;13.02;;;0.90;90.70;;;;;;5115904;28;20233;-80
2022/03/02 02:13:58;;;;;;;15.02;13.13;;;0.90;90.40;;;;;;5115906;28;20737;-80
2022/03/02 02:16:25;;;;;;;12.73;11.63;;;0.80;90.40;;;;;;5115526;28;20207;-80
2022/03/02 02:18:54;;;;;;;13.65;11.25;;;0.80;89.80;;;;;;5114935;28;20201;-79
2022/03/02 02:21:23;;;;;;;16.83;11.43;;;0.70;89.60;;;;;;5116515;28;20323;-79
2022/03/02 02:23:50;;;;;;;12.88;11.05;;;0.70;90.30;;;;;;5115450;28;20196;-80
2022/03/02 02:26:19;;;;;;;12.35;11.18;;;0.60;89.90;;;;;;5099144;28;20231;-80
2022/03/02 02:28:46;;;;;;;14.00;11.90;;;0.60;90.00;;;;;;5113378;28;20582;-80
2022/03/02 02:31:13;;;;;;;12.98;10.93;;;0.60;90.00;;;;;;5119632;28;20221;-80
2022/03/02 02:33:40;;;;;;;12.10;10.50;;;0.60;90.10;;;;;;5105926;28;20201;-80
2022/03/02 02:36:07;;;;;;;12.60;11.40;;;0.60;90.20;;;;;;5099772;28;20227;-80
2022/03/02 02:38:35;;;;;;;16.73;10.80;;;0.60;90.20;;;;;;5110620;28;20213;-80
2022/03/02 02:41:02;;;;;;;15.80;13.30;;;0.60;90.10;;;;;;5119307;28;20220;-80
2022/03/02 02:43:29;;;;;;;11.70;9.38;;;0.50;90.20;;;;;;5108684;28;20243;-80
2022/03/02 02:45:56;;;;;;;14.77;11.90;;;0.50;90.20;;;;;;5098745;28;20705;-80
2022/03/02 02:48:23;;;;;;;14.68;12.15;;;0.50;90.30;;;;;;5108036;28;20226;-80
2022/03/02 02:50:50;;;;;;;13.30;11.85;;;0.40;90.20;;;;;;5118811;28;20227;-80
2022/03/02 02:53:17;;;;;;;15.23;13.68;;;0.40;90.30;;;;;;5110334;28;20208;-80
2022/03/02 02:55:47;;;;;;;13.43;10.35;;;0.40;90.70;;;;;;5099000;28;20197;-80
2022/03/02 02:58:14;;;;;;;14.18;11.30;;;0.30;90.40;;;;;;5105311;28;20227;-80
2022/03/02 03:00:43;;;;;;;13.95;10.95;;;0.30;90.70;;;;;;5118768;28;20228;-79
2022/03/02 03:03:10;;;;;;;13.07;10.20;;;0.20;90.90;;;;;;5112446;28;20196;-79
2022/03/02 03:05:37;;;;;;;12.85;10.68;;;-0.10;91.30;;;;;;5099019;28;20220;-79
2022/03/02 03:08:07;;;;;;;18.92;11.75;;;-0.10;91.60;;;;;;5099983;28;20236;-79
2022/03/02 03:10:34;;;;;;;16.85;12.30;;;-0.10;91.80;;;;;;5102557;28;20200;-79
2022/03/02 03:13:03;;;;;;;14.30;11.00;;;0.00;92.10;;;;;;5112634;28;20214;-79
2022/03/02 03:15:30;;;;;;;16.05;11.65;;;0.00;92.20;;;;;;5124419;28;20195;-79
2022/03/02 03:17:57;;;;;;;13.10;10.20;;;0.00;92.30;;;;;;5110882;28;20208;-79
2022/03/02 03:20:27;;;;;;;13.88;10.73;;;0.00;92.30;;;;;;5098028;28;20212;-80
2022/03/02 03:22:54;;;;;;;16.52;12.55;;;0.00;92.50;;;;;;5105194;28;20192;-80
2022/03/02 03:25:21;;;;;;;13.63;11.90;;;0.00;92.50;;;;;;5118558;28;20204;-79
2022/03/02 03:27:49;;;;;;;13.27;11.15;;;0.00;92.50;;;;;;5112354;28;20196;-79
2022/03/02 03:30:19;;;;;;;13.15;11.40;;;0.00;92.60;;;;;;5097935;28;20208;-79
2022/03/02 03:32:47;;;;;;;17.98;11.05;;;0.00;92.70;;;;;;5102412;28;20196;-79
2022/03/02 03:35:15;;;;;;;13.25;10.30;;;-0.10;92.70;;;;;;5105574;28;20204;-79
2022/03/02 03:37:43;;;;;;;16.63;11.40;;;-0.10;92.80;;;;;;5101931;28;20207;-79
2022/03/02 03:40:12;;;;;;;17.75;11.50;;;-0.10;92.90;;;;;;5118410;28;20214;-79
2022/03/02 03:42:39;;;;;;;15.57;11.38;;;-0.10;93.00;;;;;;5115172;28;20732;-79
2022/03/02 03:45:07;;;;;;;17.95;11.63;;;-0.10;93.10;;;;;;5097789;28;20216;-79
2022/03/02 03:47:36;;;;;;;14.25;10.00;;;-0.10;93.20;;;;;;5099138;28;20254;-79
2022/03/02 03:50:03;;;;;;;12.25;10.70;;;-0.10;93.30;;;;;;5118090;28;20683;-80
2022/03/02 03:52:30;;;;;;;20.08;11.52;;;-0.10;93.40;;;;;;5116608;28;20242;-80
2022/03/02 03:54:57;;;;;;;16.60;14.85;;;-0.10;93.40;;;;;;5097467;28;20207;-80
2022/03/02 03:57:23;;;;;;;16.92;12.55;;;-0.10;93.40;;;;;;5113334;28;20196;-80
2022/03/02 03:59:50;;;;;;;16.08;11.02;;;-0.20;93.70;;;;;;5117686;28;20216;-79
2022/03/02 04:02:17;;;;;;;14.85;8.60;;;-0.10;93.80;;;;;;5102252;28;20227;-79
2022/03/02 04:04:45;;;;;;;14.90;10.90;;;-0.20;93.60;;;;;;5097199;28;20216;-79
2022/03/02 04:07:12;;;;;;;15.57;10.65;;;-0.20;93.60;;;;;;5110336;28;20704;-79
2022/03/02 04:09:38;;;;;;;23.25;11.80;;;-0.20;93.80;;;;;;5117492;28;20203;-79
2022/03/02 04:12:06;;;;;;;15.32;11.85;;;-0.20;93.90;;;;;;5104768;28;20232;-79
2022/03/02 04:14:33;;;;;;;15.88;12.02;;;-0.30;94.00;;;;;;5096804;28;20204;-79
2022/03/02 04:17:00;;;;;;;16.15;11.55;;;-0.30;94.30;;;;;;5113988;28;20242;-79
2022/03/02 04:19:26;;;;;;;15.10;11.30;;;-0.40;94.30;;;;;;5117146;28;20215;-79
2022/03/02 04:21:54;;;;;;;12.43;11.15;;;-0.40;94.40;;;;;;5101864;28;20224;-79
2022/03/02 04:24:21;;;;;;;12.35;9.88;;;-0.40;94.40;;;;;;5097635;28;20218;-79
2022/03/02 04:26:48;;;;;;;11.95;10.00;;;-0.50;94.60;;;;;;5110371;28;20211;-79
2022/03/02 04:29:15;;;;;;;12.82;11.48;;;-0.40;94.70;;;;;;5116878;28;20214;-79
2022/03/02 04:31:42;;;;;;;15.05;11.20;;;-0.40;94.80;;;;;;5117398;28;20231;-79
2022/03/02 04:34:08;;;;;;;11.35;10.10;;;-0.40;94.80;;;;;;5110911;28;20199;-80
2022/03/02 04:36:35;;;;;;;15.88;11.68;;;-0.50;94.70;;;;;;5096972;28;20200;-80
2022/03/02 04:39:04;;;;;;;11.38;10.20;;;-0.50;94.70;;;;;;5101484;28;20195;-80
2022/03/02 04:41:31;;;;;;;14.68;11.13;;;-0.50;94.90;;;;;;5116058;28;20561;-80
2022/03/02 04:43:57;;;;;;;14.60;10.60;;;-0.50;95.10;;;;;;5116132;28;20661;-80
2022/03/02 04:46:24;;;;;;;15.02;11.95;;;-0.50;95.30;;;;;;5117560;28;20756;-79
2022/03/02 04:48:51;;;;;;;13.50;9.43;;;-0.50;95.40;;;;;;5129571;28;20203;-80
2022/03/02 04:51:18;;;;;;;13.93;11.93;;;-0.50;95.60;;;;;;5115857;28;20224;-79
2022/03/02 04:53:45;;;;;;;16.70;11.35;;;-0.50;95.60;;;;;;5106990;28;20210;-79
2022/03/02 04:56:13;;;;;;;14.05;9.75;;;-0.50;95.70;;;;;;5110173;28;20200;-79
2022/03/02 04:58:39;;;;;;;13.18;11.75;;;-0.60;95.80;;;;;;5107619;28;20207;-79
2022/03/02 05:01:06;;;;;;;16.55;12.77;;;-0.60;95.90;;;;;;5099376;28;20220;-79
2022/03/02 05:03:33;;;;;;;14.00;11.00;;;-0.60;95.60;;;;;;5128039;28;20199;-79
2022/03/02 05:06:00;;;;;;;15.98;10.93;;;-0.60;95.40;;;;;;5132540;28;20225;-79
2022/03/02 05:08:26;;;;;;;13.57;10.80;;;-0.70;95.40;;;;;;5108909;28;20205;-79
2022/03/02 05:10:53;;;;;;;15.38;10.35;;;-0.70;95.50;;;;;;5125104;22;20262;-83
2022/03/02 05:13:21;;;;;;;13.80;11.60;;;-0.70;95.60;;;;;;5146193;27;20214;-83
2022/03/02 05:15:48;;;;;;;15.65;10.55;;;-0.70;95.50;;;;;;5145979;27;20207;-82
2022/03/02 05:18:14;;;;;;;13.98;10.82;;;-0.70;95.40;;;;;;5146066;28;20214;-82
2022/03/02 05:20:41;;;;;;;11.35;10.18;;;-0.70;95.40;;;;;;5145831;28;20355;-82
2022/03/02 05:23:08;;;;;;;14.15;10.95;;;-0.80;95.40;;;;;;5145226;28;20199;-82
2022/03/02 05:25:35;;;;;;;13.20;10.80;;;-0.80;95.50;;;;;;5145084;28;20278;-82
2022/03/02 05:28:02;;;;;;;14.90;11.88;;;-0.80;95.50;;;;;;5145978;28;20321;-82
2022/03/02 05:30:30;;;;;;;15.82;12.07;;;-0.90;95.60;;;;;;5141681;28;20196;-83
2022/03/02 05:32:56;;;;;;;18.15;12.25;;;-0.90;95.70;;;;;;5125360;28;20593;-82
2022/03/02 05:35:23;;;;;;;15.30;11.65;;;-0.90;95.80;;;;;;5126962;28;20214;-81
2022/03/02 05:37:50;;;;;;;13.73;11.70;;;-0.90;96.00;;;;;;5145975;28;20203;-83
2022/03/02 05:40:19;;;;;;;16.38;13.02;;;-0.80;96.00;;;;;;5145303;28;20203;-82
2022/03/02 05:42:45;;;;;;;16.13;11.95;;;-0.80;96.20;;;;;;5144593;28;20230;-82
2022/03/02 05:45:12;;;;;;;14.52;10.77;;;-0.70;96.30;;;;;;5145259;28;20207;-82
2022/03/02 05:47:41;;;;;;;13.00;10.57;;;-0.70;96.40;;;;;;5145028;28;20214;-82
2022/03/02 05:50:09;;;;;;;13.80;10.30;;;-0.70;96.50;;;;;;5137145;28;20203;-83
2022/03/02 05:52:36;;;;;;;15.93;11.27;;;-0.60;96.50;;;;;;5125322;28;20243;-82
2022/03/02 05:55:04;;;;;;;19.35;13.75;;;-0.50;96.60;;;;;;5124888;28;20195;-82
2022/03/02 05:57:31;;;;;;;15.30;11.23;;;-0.40;96.50;;;;;;5126590;28;20203;-83
2022/03/02 05:59:57;;;;;;;13.70;12.23;;;-0.40;96.30;;;;;;5127932;28;20204;-82
2022/03/02 06:02:24;;;;;;;19.80;12.25;;;-0.30;96.30;;;;;;5128492;27;20231;-82
2022/03/02 06:04:52;;;;;;;14.05;11.27;;;-0.20;96.20;;;;;;5148351;27;20206;-82
2022/03/02 06:07:19;;;;;;;13.07;11.65;;;-0.10;96.50;;;;;;5149653;27;20223;-82
2022/03/02 06:09:46;;;;;;;16.58;11.82;;;0.00;96.10;;;;;;5133910;27;20198;-82
2022/03/02 06:12:15;;;;;;;12.52;11.07;;;0.10;96.00;;;;;;5162857;27;20269;-82
2022/03/02 06:14:42;;;;;;;16.48;11.48;;;0.10;95.80;;;;;;5164126;27;20222;-82
2022/03/02 06:17:10;;;;;;;13.07;11.63;;;0.20;95.80;;;;;;5157194;27;20214;-82
2022/03/02 06:19:37;;;;;;;14.27;11.20;;;0.30;95.80;;;;;;5143611;27;20218;-83
2022/03/02 06:22:07;;;;;;;14.38;10.85;;;0.40;95.70;;;;;;5147939;27;20215;-82
2022/03/02 06:24:34;;;;;;;17.05;11.57;;;0.50;95.50;;;;;;5141585;27;20202;-81
2022/03/02 06:27:01;;;;;;;14.30;12.05;;;0.60;95.30;;;;;;5142878;27;20219;-82
2022/03/02 06:29:28;;;;;;;17.00;11.80;;;0.60;95.20;;;;;;5144372;27;20642;-81
2022/03/02 06:31:55;;;;;;;18.55;11.40;;;0.70;95.10;;;;;;5142362;27;20220;-81
2022/03/02 06:34:21;;;;;;;13.70;11.93;;;0.80;94.90;;;;;;5161496;27;20206;-81
2022/03/02 06:36:50;;;;;;;14.98;12.30;;;0.90;94.60;;;;;;5147283;27;20202;-80
2022/03/02 06:39:20;;;;;;;19.30;12.70;;;0.90;94.20;;;;;;5148348;27;20199;-80
2022/03/02 06:41:56;;;;;;;14.52;12.65;;;1.00;94.00;;;;;;5159056;27;20229;-82
2022/03/02 06:44:28;;;;;;;16.67;12.10;;;1.10;93.70;;;;;;5164313;27;20202;-82
2022/03/02 06:47:02;;;;;;;12.95;10.90;;;1.20;93.30;;;;;;5161502;27;20237;-83
2022/03/02 06:49:35;;;;;;;10.80;9.70;;;1.30;93.30;;;;;;5147287;27;20199;-84
2022/03/02 06:52:04;;;;;;;15.70;11.48;;;1.30;93.50;;;;;;5141056;27;20584;-82
2022/03/02 06:54:34;;;;;;;15.25;13.18;;;1.40;93.30;;;;;;5142738;27;20680;-81
2022/03/02 06:57:03;;;;;;;18.33;15.98;;;1.50;93.20;;;;;;5141870;27;20210;-82
2022/03/02 06:59:36;;;;;;;18.90;13.05;;;1.60;92.80;;;;;;5145279;27;20659;-82
2022/03/02 07:02:05;;;;;;;22.15;12.45;;;1.70;92.70;;;;;;5149370;27;20219;-82
2022/03/02 07:04:37;;;;;;;16.10;13.40;;;1.70;92.30;;;;;;5161832;27;20206;-82
2022/03/02 07:07:04;;;;;;;20.77;12.63;;;1.80;92.50;;;;;;5153392;27;20219;-82
2022/03/02 07:09:33;;;;;;;21.23;12.23;;;1.80;94.00;;;;;;5167608;27;20232;-82
2022/03/02 07:12:01;;;;;;;13.70;11.40;;;1.90;94.90;;;;;;5168507;27;20282;-82
2022/03/02 07:14:29;;;;;;;26.52;14.15;;;2.00;94.10;;;;;;5165765;27;20195;-82
2022/03/02 07:16:58;;;;;;;17.52;14.35;;;2.20;92.90;;;;;;5167166;27;20643;-82
2022/03/02 07:19:25;;;;;;;14.70;11.07;;;2.20;92.70;;;;;;5166217;27;20203;-82
2022/03/02 07:21:53;;;;;;;13.15;11.13;;;2.30;92.70;;;;;;5170973;27;20292;-82
2022/03/02 07:24:22;;;;;;;16.48;12.73;;;2.50;91.60;;;;;;5160292;27;20229;-82
2022/03/02 07:26:54;;;;;;;15.82;11.65;;;2.60;91.20;;;;;;5168779;27;20222;-83
2022/03/02 07:29:23;;;;;;;15.65;11.13;;;2.60;90.70;;;;;;5174258;27;20206;-82
2022/03/02 07:31:51;;;;;;;13.40;11.85;;;2.70;90.70;;;;;;5163682;27;20311;-82
2022/03/02 07:34:19;;;;;;;13.75;12.05;;;2.80;90.70;;;;;;5169142;27;20209;-82
2022/03/02 07:36:46;;;;;;;17.50;11.98;;;2.90;90.40;;;;;;5169970;27;20200;-82
2022/03/02 07:39:13;;;;;;;17.27;11.75;;;2.90;90.40;;;;;;5172323;27;20226;-82
2022/03/02 07:41:40;;;;;;;15.25;10.82;;;2.90;90.60;;;;;;5169235;27;20221;-82
2022/03/02 07:44:08;;;;;;;16.67;12.07;;;2.90;90.40;;;;;;5164596;27;20207;-82
2022/03/02 07:46:36;;;;;;;17.25;13.15;;;2.90;90.30;;;;;;5172545;27;20198;-82
2022/03/02 07:49:03;;;;;;;18.65;14.43;;;3.00;90.40;;;;;;5162682;27;20202;-82
2022/03/02 07:51:33;;;;;;;14.20;12.70;;;3.00;90.40;;;;;;5169007;27;20221;-82
2022/03/02 07:54:18;;;;;;;17.67;13.70;;;3.10;90.20;;;;;;5167092;27;20202;-82
2022/03/02 07:57:01;;;;;;;15.73;13.80;;;3.20;89.60;;;;;;5135906;27;20660;-82
2022/03/02 07:59:33;;;;;;;18.95;14.13;;;3.30;89.20;;;;;;5139464;27;20247;-83
2022/03/02 08:02:00;;;;;;;17.92;14.73;;;3.40;88.90;;;;;;5157445;27;20228;-81
2022/03/02 08:04:29;;;;;;;15.85;14.25;;;3.40;87.80;;;;;;5157371;27;20212;-82
2022/03/02 08:06:55;;;;;;;18.52;13.52;;;3.40;87.80;;;;;;5140481;27;20228;-82
2022/03/02 08:10:03;;;;;;;18.02;14.27;;;3.50;88.20;;;;;;5141909;27;20203;-84
2022/03/02 08:12:30;;;;;;;14.32;12.88;;;3.60;88.30;;;;;;5143324;27;20230;-82
2022/03/02 08:14:59;;;;;;;15.55;12.77;;;3.70;87.50;;;;;;5148348;27;20214;-82
2022/03/02 08:17:26;;;;;;;14.68;12.90;;;3.80;88.00;;;;;;5144848;27;20203;-82
2022/03/02 08:19:53;;;;;;;16.15;14.57;;;4.00;87.40;;;;;;5141942;27;20228;-82
2022/03/02 08:22:24;;;;;;;15.38;13.75;;;4.10;87.20;;;;;;5141268;27;20222;-82
2022/03/02 08:24:56;;;;;;;16.95;14.10;;;4.30;87.00;;;;;;5143991;27;20222;-82
2022/03/02 08:27:23;;;;;;;17.58;14.70;;;4.40;87.20;;;;;;5145427;27;20297;-82
2022/03/02 08:29:56;;;;;;;16.40;12.43;;;4.50;86.80;;;;;;5145797;27;20623;-84
2022/03/02 08:32:26;;;;;;;20.65;14.82;;;4.60;86.00;;;;;;5146669;27;20700;-83
2022/03/02 08:34:53;;;;;;;16.75;14.13;;;4.60;85.10;;;;;;5137254;27;20194;-84
2022/03/02 08:37:20;;;;;;;15.63;12.93;;;4.60;85.20;;;;;;5135297;27;20777;-85
2022/03/02 08:39:48;;;;;;;22.15;13.60;;;4.60;85.40;;;;;;5143963;27;20206;-83
2022/03/02 08:42:16;;;;;;;21.13;14.68;;;4.50;85.00;;;;;;5143616;27;20309;-82
2022/03/02 08:44:46;;;;;;;24.95;13.95;;;4.50;86.00;;;;;;5136395;27;20211;-81
2022/03/02 08:47:14;;;;;;;16.30;12.85;;;4.50;86.20;;;;;;5136614;27;20229;-81
2022/03/02 08:49:42;;;;;;;14.38;12.88;;;4.50;86.40;;;;;;5143497;27;20203;-83
2022/03/02 08:52:10;;;;;;;20.65;14.30;;;4.60;86.40;;;;;;5149429;27;20691;-82
2022/03/02 08:54:45;;;;;;;19.17;16.52;;;4.70;86.20;;;;;;5143451;27;20202;-84
2022/03/02 08:57:12;;;;;;;18.63;13.60;;;4.80;85.70;;;;;;5136058;27;20202;-83
2022/03/02 08:59:41;;;;;;;17.63;13.13;;;4.90;86.40;;;;;;5135859;27;20214;-82
2022/03/02 09:02:09;;;;;;;22.63;16.90;;;5.00;87.80;;;;;;5136321;27;20230;-82
2022/03/02 09:04:36;;;;;;;21.92;16.85;;;5.20;87.50;;;;;;5136845;27;20207;-83
2022/03/02 09:07:06;;;;;;;17.60;15.15;;;5.40;85.70;;;;;;5137939;27;20238;-82
2022/03/02 09:09:33;;;;;;;21.67;16.00;;;5.60;84.50;;;;;;5138865;27;20198;-83
2022/03/02 09:12:00;;;;;;;21.35;16.38;;;5.60;84.00;;;;;;5134636;27;20258;-84
2022/03/02 09:14:27;;;;;;;22.48;14.43;;;5.70;83.30;;;;;;5135064;27;20207;-83
2022/03/02 09:16:54;;;;;;;19.48;14.18;;;5.80;83.70;;;;;;5136320;27;20202;-82
2022/03/02 09:19:20;;;;;;;18.63;14.60;;;5.80;83.80;;;;;;5136516;28;20201;-82
2022/03/02 09:21:49;;;;;;;18.33;15.85;;;5.90;84.30;;;;;;5136608;28;20227;-82
2022/03/02 09:24:18;;;;;;;20.35;13.20;;;6.00;84.50;;;;;;5144556;28;20213;-81
2022/03/02 09:26:46;;;;;;;18.33;14.27;;;6.10;84.30;;;;;;5139841;28;20202;-82
2022/03/02 09:29:17;;;;;;;15.90;14.27;;;6.20;82.60;;;;;;5136145;28;20226;-81
2022/03/02 09:31:49;;;;;;;17.75;14.23;;;6.40;82.40;;;;;;5137607;27;20226;-82
2022/03/02 09:34:16;;;;;;;17.17;14.18;;;6.50;81.50;;;;;;5138052;27;20203;-82
2022/03/02 09:36:44;;;;;;;16.25;14.30;;;6.60;80.10;;;;;;5139933;27;20226;-84
2022/03/02 09:39:11;;;;;;;24.02;14.77;;;6.80;80.80;;;;;;5143584;27;20571;-83
2022/03/02 09:41:49;;;;;;;18.10;15.13;;;6.90;80.40;;;;;;5142935;27;20229;-83
2022/03/02 09:44:18;;;;;;;29.15;14.68;;;7.20;78.90;;;;;;5142734;27;20207;-84
2022/03/02 09:46:50;;;;;;;16.58;14.85;;;7.50;78.00;;;;;;5141952;27;20238;-84
2022/03/02 09:49:21;;;;;;;17.40;12.90;;;7.70;77.60;;;;;;5149775;27;20758;-82
2022/03/02 09:51:52;;;;;;;16.85;11.75;;;7.90;74.30;;;;;;5153791;27;20225;-82
2022/03/02 09:54:22;;;;;;;16.00;14.20;;;8.00;73.10;;;;;;5149049;27;20541;-84
2022/03/02 09:56:51;;;;;;;15.75;13.85;;;8.00;71.70;;;;;;5143422;27;20209;-83
2022/03/02 09:59:19;;;;;;;15.73;14.13;;;8.10;71.40;;;;;;5143441;27;20221;-84
2022/03/02 10:01:46;;;;;;;19.38;14.00;;;8.10;71.40;;;;;;5142791;27;20219;-84
2022/03/02 10:04:21;;;;;;;13.60;12.30;;;8.10;71.20;;;;;;5145730;27;20210;-82
2022/03/02 10:06:50;;;;;;;15.20;13.68;;;8.10;71.20;;;;;;5153486;27;20189;-82
2022/03/02 10:09:20;;;;;;;13.50;11.63;;;8.20;71.00;;;;;;5148961;27;20233;-85
2022/03/02 10:11:48;;;;;;;11.85;10.65;;;8.30;69.70;;;;;;5142676;27;20242;-84
2022/03/02 10:14:19;;;;;;;12.57;10.35;;;8.40;66.40;;;;;;5143300;27;20203;-84
2022/03/02 10:16:47;;;;;;;13.15;11.85;;;8.50;63.20;;;;;;5149614;27;20197;-82
2022/03/02 10:19:25;;;;;;;14.80;13.20;;;8.50;62.20;;;;;;5152704;27;20233;-82
2022/03/02 10:22:14;;;;;;;15.52;13.77;;;8.70;63.50;;;;;;5144431;27;20715;-83
2022/03/02 10:24:45;;;;;;;14.77;12.35;;;8.70;64.10;;;;;;5144013;27;20192;-83
2022/03/02 10:27:31;;;;;;;18.10;12.32;;;8.80;64.40;;;;;;5143251;27;20257;-84
2022/03/02 10:30:07;;;;;;;17.08;12.55;;;9.10;66.20;;;;;;5142916;27;20237;-84
2022/03/02 10:32:35;;;;;;;13.73;12.52;;;9.40;64.60;;;;;;5141844;27;20228;-84
2022/03/02 10:35:06;;;;;;;13.40;12.10;;;9.70;63.00;;;;;;5142810;27;20207;-83
2022/03/02 10:37:36;;;;;;;12.90;11.70;;;10.00;60.00;;;;;;5142030;27;20197;-83
2022/03/02 10:40:16;;;;;;;15.30;12.40;;;10.00;58.40;;;;;;5141738;27;20468;-83
2022/03/02 10:42:45;;;;;;;13.70;12.07;;;10.00;57.80;;;;;;5140962;27;20499;-83
2022/03/02 10:45:22;;;;;;;21.10;13.37;;;10.20;58.50;;;;;;5141272;27;20445;-83
2022/03/02 10:47:56;;;;;;;14.13;12.75;;;10.40;59.00;;;;;;5151513;27;20450;-83
2022/03/02 10:50:25;;;;;;;13.57;12.00;;;10.50;57.80;;;;;;5144746;27;20201;-85
2022/03/02 10:52:54;;;;;;;13.30;11.90;;;10.70;57.40;;;;;;5143183;27;21116;-84
2022/03/02 10:55:22;;;;;;;13.57;12.07;;;10.90;57.90;;;;;;5142375;27;20452;-85
2022/03/02 10:57:51;;;;;;;19.43;12.37;;;10.90;56.60;;;;;;5141991;27;20482;-84
2022/03/02 11:00:21;;;;;;;12.13;10.60;;;11.00;55.90;;;;;;5141802;27;20442;-84
2022/03/02 11:02:51;;;;;;;14.73;11.97;;;10.80;54.70;;;;;;5148231;27;20995;-83
2022/03/02 11:05:19;;;;;;;12.43;11.10;;;10.40;54.60;;;;;;5151104;27;20454;-82
2022/03/02 11:07:47;;;;;;;16.03;12.73;;;10.30;55.20;;;;;;5144181;27;20443;-84
2022/03/02 11:10:16;;;;;;;15.30;12.33;;;10.10;55.10;;;;;;5148492;27;20450;-82
2022/03/02 11:12:44;;;;;;;13.05;11.75;;;10.10;56.50;;;;;;5142066;27;20479;-85
2022/03/02 11:15:12;;;;;;;15.27;13.67;;;10.40;56.10;;;;;;5143427;27;20301;-84
2022/03/02 11:17:53;;;;;;;13.00;11.90;;;10.50;55.90;;;;;;5147746;27;20508;-82
2022/03/02 11:20:20;;;;;;;13.50;12.10;;;10.60;55.40;;;;;;5150776;27;20445;-82
2022/03/02 11:22:53;;;;;;;13.60;11.40;;;10.80;55.60;;;;;;5149788;27;20470;-82
2022/03/02 11:25:20;;;;;;;14.30;11.60;;;10.70;55.50;;;;;;5146597;27;20443;-82
2022/03/02 11:27:47;;;;;;;14.23;12.10;;;10.70;55.70;;;;;;5142880;27;20478;-82
2022/03/02 11:30:16;;;;;;;14.73;13.00;;;10.50;55.30;;;;;;5141710;27;20433;-82
2022/03/02 11:32:45;;;;;;;12.93;11.48;;;9.70;56.10;;;;;;5144272;27;20243;-82
2022/03/02 11:35:17;;;;;;;11.32;10.18;;;9.30;56.60;;;;;;5152445;27;20206;-82
2022/03/02 11:37:45;;;;;;;16.30;12.20;;;9.40;56.80;;;;;;5142715;27;20212;-82
2022/03/02 11:40:15;;;;;;;14.23;12.18;;;9.20;55.10;;;;;;5141238;27;20202;-85
2022/03/02 11:42:43;;;;;;;13.73;12.33;;;9.20;56.30;;;;;;5142097;27;20233;-84
2022/03/02 11:45:12;;;;;;;12.43;11.23;;;9.70;56.50;;;;;;5142910;27;20446;-84
2022/03/02 11:47:41;;;;;;;13.30;10.40;;;10.30;55.80;;;;;;5145301;27;20505;-82
2022/03/02 11:50:09;;;;;;;13.57;12.30;;;10.60;54.60;;;;;;5150379;27;20454;-82
2022/03/02 11:52:44;;;;;;;12.10;10.90;;;10.70;54.10;;;;;;5141909;27;20477;-83
2022/03/02 11:55:13;;;;;;;12.53;11.10;;;10.80;53.10;;;;;;5140929;27;20447;-84
2022/03/02 11:57:44;;;;;;;15.33;12.70;;;10.70;53.40;;;;;;5141542;27;20459;-83
2022/03/02 12:00:14;;;;;;;14.20;11.50;;;10.70;53.30;;;;;;5141185;27;20475;-83
2022/03/02 12:02:43;;;;;;;12.13;10.90;;;10.40;53.10;;;;;;5141201;27;20501;-84
2022/03/02 12:05:10;;;;;;;13.47;10.70;;;10.10;53.60;;;;;;5142688;27;20952;-83
2022/03/02 12:07:40;;;;;;;13.77;12.33;;;10.50;54.60;;;;;;5150075;27;20443;-82
2022/03/02 12:10:17;;;;;;;13.97;12.57;;;11.10;54.40;;;;;;5150047;27;20451;-82
2022/03/02 12:12:44;;;;;;;14.87;12.40;;;11.60;54.10;;;;;;5142118;27;20855;-84
2022/03/02 12:15:11;;;;;;;13.70;11.30;;;11.90;52.80;;;;;;5141828;27;20443;-85
2022/03/02 12:17:38;;;;;;;14.20;12.70;;;12.30;52.00;;;;;;5140792;27;20522;-83
2022/03/02 12:20:08;;;;;;;13.90;12.50;;;12.80;51.30;;;;;;5140166;27;20478;-84
2022/03/02 12:22:36;;;;;;;13.27;11.87;;;13.10;50.90;;;;;;5144105;27;20464;-82
2022/03/02 12:25:07;;;;;;;13.77;11.00;;;12.90;48.20;;;;;;5150600;27;20452;-82
2022/03/02 12:27:34;;;;;;;12.70;11.40;;;13.20;47.90;;;;;;5149989;27;20430;-82
2022/03/02 12:30:04;;;;;;;11.60;10.40;;;13.20;46.90;;;;;;5142639;27;20441;-84
2022/03/02 12:32:33;;;;;;;14.70;10.40;;;12.20;44.10;;;;;;5141921;27;20472;-84
2022/03/02 12:35:02;;;;;;;12.93;11.00;;;11.70;43.60;;;;;;5141408;27;20451;-84
2022/03/02 12:37:30;;;;;;;12.50;11.30;;;11.70;46.40;;;;;;5144260;27;20489;-85
2022/03/02 12:39:57;;;;;;;9.43;8.60;;;11.30;45.40;;;;;;5140831;27;20487;-84